createdAt,value
2023-03-06T00:05:26.351Z,33.2
2023-03-06T00:11:31.641Z,33.2
2023-03-06T00:17:37.682Z,33.2
2023-03-06T00:23:43.193Z,33.2
2023-03-06T00:29:49.372Z,33.3
2023-03-06T00:35:55.044Z,33.3
2023-03-06T00:42:01.573Z,33.3
2023-03-06T00:48:07.307Z,33.4
2023-03-06T00:54:13.717Z,33.5
2023-03-06T01:00:19.340Z,33.5
2023-03-06T01:06:25.080Z,33.6
2023-03-06T01:12:30.854Z,33.6
2023-03-06T01:18:37.021Z,33.7
2023-03-06T01:24:42.672Z,33.7
2023-03-06T01:30:48.567Z,33.7
2023-03-06T01:36:54.146Z,33.8
2023-03-06T01:43:00.329Z,33.9
2023-03-06T01:49:06.298Z,33.9
2023-03-06T01:55:12.081Z,33.9
2023-03-06T02:01:20.573Z,34
2023-03-06T02:07:26.127Z,34
2023-03-06T02:13:31.489Z,34
2023-03-06T02:19:37.261Z,34
2023-03-06T02:25:43.023Z,33.9
2023-03-06T02:31:49.244Z,33.9
2023-03-06T02:37:54.977Z,33.9
2023-03-06T02:44:00.214Z,33.8
2023-03-06T02:50:05.562Z,33.7
2023-03-06T02:56:11.700Z,33.7
2023-03-06T03:02:17.058Z,33.6
2023-03-06T03:08:23.259Z,33.5
2023-03-06T03:14:28.719Z,33.5
2023-03-06T03:20:35.016Z,33.5
2023-03-06T03:26:40.637Z,33.7
2023-03-06T03:32:46.995Z,33.6
2023-03-06T03:38:52.957Z,33.6
2023-03-06T03:44:58.325Z,33.6
2023-03-06T03:51:04.113Z,33.5
2023-03-06T03:57:10.157Z,33.5
2023-03-06T04:03:15.734Z,33.6
2023-03-06T04:09:21.822Z,33.6
2023-03-06T04:15:27.824Z,33.6
2023-03-06T04:21:33.672Z,33.6
2023-03-06T04:27:39.162Z,33.5
2023-03-06T04:33:45.145Z,33.6
2023-03-06T04:39:50.519Z,33.7
2023-03-06T04:45:56.548Z,33.8
2023-03-06T04:52:02.486Z,33.6
2023-03-06T04:58:08.689Z,33.5
2023-03-06T05:04:14.121Z,33.4
2023-03-06T05:10:19.810Z,33.2
2023-03-06T05:16:25.402Z,33
2023-03-06T05:22:31.355Z,32.9
2023-03-06T05:28:37.127Z,32.8
2023-03-06T05:34:43.331Z,32.8
2023-03-06T05:40:49.088Z,32.9
2023-03-06T05:46:54.803Z,32.9
2023-03-06T05:53:00.460Z,32.9
2023-03-06T05:59:06.618Z,33
2023-03-06T06:05:14.248Z,33
2023-03-06T06:11:20.301Z,33
2023-03-06T06:17:25.681Z,33.1
2023-03-06T06:23:31.679Z,33.1
2023-03-06T06:29:37.244Z,33.2
2023-03-06T06:35:43.448Z,33.1
2023-03-06T06:42:28.504Z,33.1
2023-03-06T06:48:35.642Z,33
2023-03-06T06:54:41.126Z,33.1
2023-03-06T07:00:47.205Z,33
2023-03-06T07:06:52.800Z,33.1
2023-03-06T07:12:58.982Z,33.1
2023-03-06T07:19:04.571Z,33
2023-03-06T07:25:10.726Z,33.1
2023-03-06T07:31:16.240Z,33.1
2023-03-06T07:37:22.684Z,33.1
2023-03-06T07:43:28.664Z,33.2
2023-03-06T07:49:34.895Z,33.1
2023-03-06T07:55:40.743Z,33.1
2023-03-06T08:01:46.288Z,33.1
2023-03-06T08:07:51.976Z,33
2023-03-06T08:13:58.202Z,33.1
2023-03-06T08:20:03.936Z,33.1
2023-03-06T08:26:10.151Z,32.9
2023-03-06T08:32:16.141Z,32.9
2023-03-06T08:38:22.286Z,32.9
2023-03-06T08:44:27.972Z,32.9
2023-03-06T08:50:33.660Z,32.9
2023-03-06T08:56:39.618Z,32.9
2023-03-06T09:02:45.606Z,33
2023-03-06T09:08:51.440Z,32.9
2023-03-06T09:14:57.784Z,32.9
2023-03-06T09:21:03.967Z,32.9
2023-03-06T09:27:09.743Z,32.9
2023-03-06T09:33:15.725Z,32.9
2023-03-06T09:39:21.541Z,32.9
2023-03-06T09:45:27.489Z,32.9
2023-03-06T09:51:33.446Z,32.9
2023-03-06T09:57:39.446Z,32.9
2023-03-06T10:03:45.414Z,32.9
2023-03-06T10:09:51.878Z,32.9
2023-03-06T10:15:57.610Z,32.9
2023-03-06T10:22:03.378Z,32.9
2023-03-06T10:28:09.767Z,33
2023-03-06T10:34:15.565Z,32.9
2023-03-06T10:40:21.515Z,32.9
2023-03-06T10:46:27.751Z,32.9
2023-03-06T10:52:33.367Z,32.9
2023-03-06T10:58:38.645Z,32.9
2023-03-06T11:04:44.866Z,32.9
2023-03-06T11:10:50.628Z,32.9
2023-03-06T11:16:56.645Z,32.8
2023-03-06T11:23:02.480Z,32.8
2023-03-06T11:29:08.203Z,32.9
2023-03-06T11:35:13.914Z,32.9
2023-03-06T11:41:19.699Z,33
2023-03-06T11:47:25.479Z,33.1
2023-03-06T11:53:31.651Z,33.1
2023-03-06T11:59:37.885Z,33.1
2023-03-06T12:05:43.235Z,33.1
2023-03-06T12:11:48.844Z,33.1
2023-03-06T12:17:54.978Z,33.1
2023-03-06T12:24:00.347Z,33.1
2023-03-06T12:30:05.896Z,33
2023-03-06T12:36:12.338Z,33
2023-03-06T12:42:27.298Z,33
2023-03-06T12:48:33.276Z,33
2023-03-06T12:54:39.079Z,33
2023-03-06T13:00:44.801Z,33
2023-03-06T13:06:54.538Z,33
2023-03-06T13:12:59.924Z,33.1
2023-03-06T13:19:06.051Z,33.1
2023-03-06T13:25:11.818Z,33.2
2023-03-06T13:31:29.867Z,33.2
2023-03-06T13:37:35.679Z,33.2
2023-03-06T13:43:45.499Z,33.2
2023-03-06T13:49:52.131Z,33.2
2023-03-06T13:55:57.974Z,33.1
2023-03-06T14:02:03.924Z,33.1
2023-03-06T14:08:09.684Z,33.1
2023-03-06T14:14:15.462Z,33.1
2023-03-06T14:20:21.289Z,33.1
2023-03-06T14:26:27.200Z,33.1
2023-03-06T14:32:33.215Z,33.1
2023-03-06T14:38:38.970Z,33.1
2023-03-06T14:44:44.745Z,33.1
2023-03-06T14:50:50.863Z,33.1
2023-03-06T14:56:56.403Z,33.1
2023-03-06T15:03:01.797Z,33.1
2023-03-06T15:09:10.090Z,33.1
2023-03-06T15:15:15.738Z,33.2
2023-03-06T15:21:21.497Z,33
2023-03-06T15:27:27.650Z,32.9
2023-03-06T15:33:33.442Z,32.6
2023-03-06T15:39:40.056Z,32.5
2023-03-06T15:45:45.836Z,32.4
2023-03-06T15:51:51.973Z,32.4
2023-03-06T15:57:57.075Z,32.4
2023-03-06T16:04:02.965Z,32.4
2023-03-06T16:10:09.097Z,32.5
2023-03-06T16:16:15.080Z,32.5
2023-03-06T16:22:20.962Z,32.6
2023-03-06T16:28:26.911Z,32.6
2023-03-06T16:34:32.634Z,32.7
2023-03-06T16:40:38.394Z,32.7
2023-03-06T16:46:44.378Z,32.7
2023-03-06T16:52:50.555Z,32.7
2023-03-06T16:58:56.321Z,32.8
2023-03-06T17:05:02.331Z,32.8
2023-03-06T17:11:08.324Z,32.9
2023-03-06T17:17:14.902Z,32.7
2023-03-06T17:23:20.376Z,32.8
2023-03-06T17:29:25.837Z,32.8
2023-03-06T17:35:31.446Z,32.7
2023-03-06T17:41:37.182Z,32.8
2023-03-06T17:47:42.954Z,32.8
2023-03-06T17:53:48.932Z,32.9
2023-03-06T17:59:55.130Z,32.8
2023-03-06T18:06:00.694Z,32.9
2023-03-06T18:12:06.330Z,32.8
2023-03-06T18:18:12.521Z,32.8
2023-03-06T18:24:18.221Z,32.7
2023-03-06T18:30:24.222Z,32.8
2023-03-06T18:36:29.970Z,32.8
2023-03-06T18:42:35.803Z,32.7
2023-03-06T18:48:41.193Z,32.7
2023-03-06T18:54:47.733Z,32.7
2023-03-06T19:00:53.006Z,32.5
2023-03-06T19:06:58.998Z,32.5
2023-03-06T19:13:04.971Z,32.5
2023-03-06T19:19:10.842Z,32.5
2023-03-06T19:25:16.633Z,32.5
2023-03-06T19:31:23.254Z,32.5
2023-03-06T19:37:28.586Z,32.5
2023-03-06T19:43:34.815Z,32.5
2023-03-06T19:49:40.543Z,32.5
2023-03-06T19:55:47.348Z,32.5
2023-03-06T20:01:53.131Z,32.6
2023-03-06T20:07:59.100Z,32.6
2023-03-06T20:14:05.097Z,32.7
2023-03-06T20:20:10.864Z,32.7
2023-03-06T20:26:16.629Z,32.7
2023-03-06T20:32:22.689Z,32.7
2023-03-06T20:38:28.478Z,32.7
2023-03-06T20:44:34.841Z,32.8
2023-03-06T20:50:40.555Z,32.7
2023-03-06T20:56:46.573Z,32.7
2023-03-06T21:02:52.524Z,32.7
2023-03-06T21:08:58.138Z,32.6
2023-03-06T21:15:03.286Z,32.5
2023-03-06T21:21:09.442Z,32.5
2023-03-06T21:27:15.493Z,32.5
2023-03-06T21:33:21.630Z,32.5
2023-03-06T21:39:28.224Z,32.5
2023-03-06T21:45:33.928Z,32.5
2023-03-06T21:51:39.780Z,32.5
2023-03-06T21:57:45.744Z,32.6
2023-03-06T22:03:51.965Z,32.6
2023-03-06T22:09:57.689Z,32.6
2023-03-06T22:16:03.497Z,32.6
2023-03-06T22:22:10.734Z,32.6
2023-03-06T22:28:16.076Z,32.6
2023-03-06T22:34:22.097Z,32.7
2023-03-06T22:40:27.800Z,32.7
2023-03-06T22:46:33.814Z,32.7
2023-03-06T22:52:39.613Z,32.7
2023-03-06T22:58:45.968Z,32.7
2023-03-06T23:11:21.685Z,32.8
2023-03-06T23:17:27.918Z,32.8
2023-03-06T23:42:29.902Z,32.8
2023-03-06T23:48:36.507Z,32.9
2023-03-06T23:54:42.897Z,32.9
